Página principal
METAR-TAF:

Aeroportos :

Cambridge, Inglaterra

latitude: 52-12N, longitude: 000-11E, altura: 15 m

Observação actual do tempo

O boletim foi feito há 7 horas e 51 minutos, às 18:50 UTC
Vento 1 kt com direcção variável
Temperatura 14°C
Humidade 88%
Pressão 1016 hPa
Visibilidade 10 km ou mais
Poucas nuvensa uma altura de 300 ft
Poucas nuvensa uma altura de 6000 ft, Cumulonimbus.
aguaceiros nas vizinhanças

METAR: EGSC 251850Z VRB01KT 9999 VCSH FEW003 FEW060CB 14/12 Q1016

Hora: 03:41 (02:41 UTC)

Previsão

O boletim foi feito há 10 horas e 42 minutos, às 15:59 UTC
Previsão válida de 25 às 16 UTC a 25 às 19 UTC
Vento 7 kt de noroeste
Visibilidade 10 km ou mais
Nuvens dispersasa uma altura de 3500 ft, Cumulonimbus.
Probabilidade 40% :
Temporariamente
de 25 às 16 UTC a 25 às 19 UTC
Visibilidade: 4000 m
aguaceiros fortes de chuva, trovoada, chuva

TAF: EGSC 251559Z 2516/2519 32007KT 9999 SCT035CB PROB40 TEMPO 2516/2519 4000 +SHRA TSRA

METAR-TAF

Observações e previsões do tempo de mais de 4000 aeroportos (mensagens METAR e TAF).

As estações disponíveis são os pontos amarelos e vermelhos sobre o mapa.

Mova o rato sobre o mapa para ver o nome da estação.

Depois clique no ponto para visualizar as observações e previsões meteorológicas.

Para alterar o mapa : clique nos botões verdes com uma cruz preta para aumentar o zoom; no botão verde com uma pitada de zoom; ou nas setas verdes para mapas adjacentes.


METAR-TAF: